Time;durP1;ratioP1;P1;durP2;ratioP2;P2;SDS_P1;SDS_P2;PMS_P1;PMS_P2;Temp;Humidity;BMP_temperature;BMP_pressure;BME280_temperature;BME280_humidity;BME280_pressure;Samples;Min_cycle;Max_cycle;Signal;HPM_P1;HPM_P2
2021/12/19 00:03:34;;;;;;;20.13;8.45;;;5.20;96.40;;;;;;10131474;28;20024;-73
2021/12/19 00:08:46;;;;;;;17.60;8.38;;;5.10;96.30;;;;;;10134435;28;20065;-73
2021/12/19 00:13:40;;;;;;;17.67;7.72;;;5.00;96.50;;;;;;10131351;28;20407;-72
2021/12/19 00:18:30;;;;;;;13.98;6.65;;;4.90;96.50;;;;;;10129728;28;20050;-73
2021/12/19 00:23:21;;;;;;;18.90;7.93;;;4.80;96.70;;;;;;10128825;28;20035;-73
2021/12/19 00:28:12;;;;;;;18.52;7.60;;;4.90;96.60;;;;;;10139940;28;20032;-73
2021/12/19 00:33:02;;;;;;;15.55;8.73;;;5.00;96.40;;;;;;10131185;28;20020;-74
2021/12/19 00:37:53;;;;;;;21.25;8.13;;;5.00;96.40;;;;;;10133074;28;20047;-75
2021/12/19 00:42:50;;;;;;;19.42;6.85;;;5.00;96.40;;;;;;10130177;28;20028;-74
2021/12/19 00:47:44;;;;;;;16.48;8.73;;;5.00;96.50;;;;;;10131425;28;20451;-73
2021/12/19 00:52:34;;;;;;;19.02;8.48;;;5.10;96.40;;;;;;10129723;28;20048;-72
2021/12/19 00:57:25;;;;;;;16.42;7.07;;;5.10;96.30;;;;;;10128684;28;20602;-73
2021/12/19 01:02:16;;;;;;;19.52;7.55;;;5.00;96.50;;;;;;10134117;28;20032;-72
2021/12/19 01:07:06;;;;;;;19.33;8.45;;;5.00;96.50;;;;;;10133769;28;20032;-72
2021/12/19 01:11:57;;;;;;;16.33;6.38;;;5.00;96.40;;;;;;10132694;28;20021;-72
2021/12/19 01:16:48;;;;;;;17.98;7.75;;;5.00;96.40;;;;;;10127502;28;20124;-73
2021/12/19 01:21:39;;;;;;;19.88;7.90;;;5.00;96.40;;;;;;10124340;28;20056;-73
2021/12/19 01:26:30;;;;;;;14.50;6.05;;;5.00;96.40;;;;;;10131166;28;20035;-71
2021/12/19 01:31:21;;;;;;;16.13;7.07;;;4.90;96.50;;;;;;10134433;28;20036;-72
2021/12/19 01:36:12;;;;;;;15.57;6.32;;;4.90;96.50;;;;;;10130753;28;20043;-72
2021/12/19 01:41:03;;;;;;;18.08;8.20;;;5.00;96.50;;;;;;10128070;28;20038;-73
2021/12/19 01:45:55;;;;;;;20.13;7.90;;;5.00;96.40;;;;;;10125446;28;20030;-73
2021/12/19 01:50:45;;;;;;;18.38;7.43;;;5.00;96.50;;;;;;10125829;28;20093;-72
2021/12/19 01:55:36;;;;;;;21.15;7.55;;;4.90;96.60;;;;;;10130005;28;20210;-71
2021/12/19 02:00:34;;;;;;;15.50;7.93;;;4.90;96.60;;;;;;10129220;28;20180;-71
2021/12/19 02:05:27;;;;;;;18.33;7.15;;;5.00;96.50;;;;;;10137396;28;20139;-74
2021/12/19 02:10:24;;;;;;;16.30;6.63;;;4.80;96.70;;;;;;10135184;28;20036;-73
2021/12/19 02:15:18;;;;;;;18.42;7.82;;;5.00;96.60;;;;;;10129761;28;20506;-73
2021/12/19 02:20:11;;;;;;;17.10;6.95;;;4.90;96.50;;;;;;10124084;28;20104;-74
2021/12/19 02:25:02;;;;;;;13.27;6.60;;;4.80;96.80;;;;;;10129042;28;20052;-73
2021/12/19 02:29:53;;;;;;;15.02;6.35;;;4.90;96.60;;;;;;10125931;28;20464;-74
2021/12/19 02:34:47;;;;;;;10.30;5.30;;;4.80;96.60;;;;;;10128499;28;20117;-73
2021/12/19 02:49:41;;;;;;;12.50;6.50;;;4.90;96.70;;;;;;10123857;28;20028;-74
2021/12/19 02:54:32;;;;;;;13.18;6.03;;;4.80;96.80;;;;;;10132538;28;20520;-73
2021/12/19 02:59:23;;;;;;;15.30;6.93;;;4.80;96.80;;;;;;10135673;28;20104;-72
2021/12/19 03:04:14;;;;;;;11.10;5.28;;;4.90;96.70;;;;;;10140418;28;20043;-73
2021/12/19 03:09:08;;;;;;;11.70;5.40;;;4.80;96.90;;;;;;10141605;28;20592;-74
2021/12/19 03:19:08;;;;;;;10.30;4.93;;;4.60;97.00;;;;;;10130124;28;20707;-74
2021/12/19 03:23:59;;;;;;;11.75;4.85;;;4.60;97.00;;;;;;10125318;28;20157;-74
2021/12/19 03:28:49;;;;;;;17.33;5.60;;;4.70;96.80;;;;;;10127976;28;20059;-74
2021/12/19 03:33:40;;;;;;;11.43;6.00;;;4.80;96.70;;;;;;10135801;28;20025;-76
2021/12/19 03:38:33;;;;;;;11.70;6.05;;;4.80;96.80;;;;;;10130640;28;20120;-73
2021/12/19 03:43:24;;;;;;;11.63;4.50;;;4.80;96.70;;;;;;10136757;28;20498;-72
2021/12/19 03:48:16;;;;;;;9.43;4.75;;;4.80;96.70;;;;;;10134927;28;20250;-73
2021/12/19 03:53:07;;;;;;;7.82;4.63;;;4.80;96.80;;;;;;10125573;28;20592;-72
2021/12/19 03:57:59;;;;;;;11.70;4.95;;;4.80;96.80;;;;;;10136022;28;20036;-73
2021/12/19 04:02:55;;;;;;;6.57;3.88;;;4.80;96.70;;;;;;10132237;28;20017;-72
2021/12/19 04:07:46;;;;;;;9.75;4.40;;;4.90;96.70;;;;;;10131563;28;20021;-72
2021/12/19 04:12:37;;;;;;;8.65;3.67;;;4.80;96.60;;;;;;10144298;28;20036;-71
2021/12/19 04:17:27;;;;;;;10.00;4.85;;;4.90;96.60;;;;;;10129419;28;20192;-73
2021/12/19 04:22:18;;;;;;;9.93;4.78;;;4.80;96.60;;;;;;10132970;28;20525;-71
2021/12/19 04:27:09;;;;;;;9.82;4.68;;;4.90;96.70;;;;;;10132634;28;20044;-73
2021/12/19 04:31:59;;;;;;;7.00;4.13;;;4.80;96.60;;;;;;10136705;28;20653;-73
2021/12/19 04:36:58;;;;;;;14.38;4.32;;;4.80;96.60;;;;;;10131112;28;20629;-72
2021/12/19 04:57:21;;;;;;;11.20;5.35;;;4.80;96.70;;;;;;10127591;28;20132;-72
2021/12/19 05:17:25;;;;;;;14.88;5.55;;;4.70;96.80;;;;;;10131319;28;20135;-73
2021/12/19 05:22:17;;;;;;;12.25;5.63;;;4.70;96.80;;;;;;10137449;28;20044;-73
2021/12/19 05:27:10;;;;;;;13.25;5.57;;;4.60;96.80;;;;;;10125013;28;20483;-71
2021/12/19 05:32:01;;;;;;;21.80;7.00;;;4.60;96.90;;;;;;10131275;28;20026;-73
2021/12/19 05:47:09;;;;;;;17.17;6.35;;;4.60;96.80;;;;;;10127988;28;20044;-73
2021/12/19 05:52:00;;;;;;;10.60;5.07;;;4.50;96.80;;;;;;10130755;28;20035;-71
2021/12/19 05:56:51;;;;;;;11.95;5.22;;;4.50;96.90;;;;;;10127254;28;20032;-73
2021/12/19 06:01:43;;;;;;;17.38;4.93;;;4.60;96.60;;;;;;10144062;28;20025;-72
2021/12/19 06:06:33;;;;;;;12.98;5.20;;;4.60;96.70;;;;;;10129937;28;20028;-73
2021/12/19 06:11:24;;;;;;;15.00;5.85;;;4.60;96.80;;;;;;10125572;28;20081;-72
2021/12/19 06:16:15;;;;;;;15.18;5.90;;;4.50;96.80;;;;;;10130545;28;20049;-72
2021/12/19 06:21:05;;;;;;;16.73;6.25;;;4.60;96.70;;;;;;10124332;28;20025;-73
2021/12/19 06:25:56;;;;;;;15.15;5.38;;;4.70;96.70;;;;;;10130152;28;20028;-71
2021/12/19 06:30:47;;;;;;;16.52;6.75;;;4.60;96.50;;;;;;10141488;28;20029;-71
2021/12/19 06:35:38;;;;;;;13.18;6.07;;;4.50;96.70;;;;;;10128817;28;20139;-73
2021/12/19 06:40:29;;;;;;;14.38;5.88;;;4.70;96.40;;;;;;10129192;28;20792;-70
2021/12/19 06:45:21;;;;;;;10.65;4.57;;;4.60;96.60;;;;;;10125971;28;20055;-74
2021/12/19 06:50:13;;;;;;;10.90;5.55;;;4.60;96.70;;;;;;10131150;28;20097;-74
2021/12/19 06:55:04;;;;;;;14.40;6.10;;;4.60;96.60;;;;;;10128184;28;20032;-72
2021/12/19 06:59:55;;;;;;;12.15;5.95;;;4.60;96.60;;;;;;10138524;28;20034;-72
2021/12/19 07:04:46;;;;;;;14.65;5.38;;;4.40;96.80;;;;;;10134466;28;20098;-69
2021/12/19 07:09:38;;;;;;;12.85;5.68;;;4.50;96.80;;;;;;10132671;28;20042;-71
2021/12/19 07:14:29;;;;;;;13.18;5.22;;;4.40;96.90;;;;;;10135036;28;20059;-72
2021/12/19 07:19:19;;;;;;;11.13;5.05;;;4.40;96.90;;;;;;10125018;28;20021;-73
2021/12/19 07:24:10;;;;;;;13.80;6.03;;;4.30;96.90;;;;;;10127192;28;20051;-72
2021/12/19 07:29:01;;;;;;;12.32;5.10;;;4.30;96.90;;;;;;10127210;28;20496;-73
2021/12/19 07:33:51;;;;;;;10.85;5.25;;;4.40;96.90;;;;;;10125567;28;20028;-75
2021/12/19 07:38:58;;;;;;;10.23;4.60;;;4.30;96.90;;;;;;10128504;28;20043;-73
2021/12/19 07:43:49;;;;;;;8.52;4.90;;;4.30;96.80;;;;;;10124129;28;20103;-73
2021/12/19 07:48:39;;;;;;;9.10;5.10;;;4.20;96.80;;;;;;10122817;28;20123;-74
2021/12/19 07:53:30;;;;;;;7.50;4.90;;;4.20;96.70;;;;;;10128756;28;20074;-72
2021/12/19 07:58:21;;;;;;;8.07;4.20;;;4.10;96.80;;;;;;10126712;28;20132;-73
2021/12/19 08:03:11;;;;;;;15.13;5.22;;;4.10;96.90;;;;;;10126316;28;20031;-73
2021/12/19 08:08:04;;;;;;;12.70;5.25;;;4.20;96.90;;;;;;10123314;28;20127;-73
2021/12/19 08:12:55;;;;;;;13.80;5.90;;;4.10;96.90;;;;;;10121625;28;20562;-74
2021/12/19 08:17:46;;;;;;;11.65;5.03;;;4.10;97.00;;;;;;10125235;28;20119;-72
2021/12/19 08:22:36;;;;;;;12.93;4.78;;;4.20;96.80;;;;;;10131521;28;20044;-72
2021/12/19 08:27:28;;;;;;;12.45;4.93;;;4.20;96.80;;;;;;10134115;28;20109;-74
2021/12/19 08:32:19;;;;;;;16.42;5.43;;;4.20;96.70;;;;;;10138335;28;20029;-72
2021/12/19 08:37:10;;;;;;;10.35;4.97;;;4.20;96.90;;;;;;10132680;28;20397;-73
2021/12/19 08:42:01;;;;;;;9.70;4.60;;;4.20;97.00;;;;;;10133289;28;20024;-73
2021/12/19 08:46:52;;;;;;;13.75;5.57;;;4.20;96.80;;;;;;10133053;28;20036;-71
2021/12/19 08:51:43;;;;;;;10.98;5.68;;;4.10;96.90;;;;;;10127217;28;20275;-74
2021/12/19 08:56:34;;;;;;;10.88;5.22;;;4.30;96.80;;;;;;10123375;28;20115;-73
2021/12/19 09:01:25;;;;;;;11.32;5.32;;;4.20;96.90;;;;;;10129721;28;20387;-74
2021/12/19 09:06:16;;;;;;;14.93;5.57;;;4.30;96.90;;;;;;10131310;28;20540;-73
2021/12/19 09:11:07;;;;;;;12.38;5.50;;;4.20;96.90;;;;;;10122815;28;20114;-73
2021/12/19 09:15:58;;;;;;;13.88;4.72;;;4.30;97.00;;;;;;10129855;28;20037;-71
2021/12/19 09:20:49;;;;;;;10.93;5.38;;;4.30;96.90;;;;;;10129676;28;20029;-75
2021/12/19 09:25:40;;;;;;;11.98;6.05;;;4.30;96.90;;;;;;10130420;28;20076;-74
2021/12/19 09:30:31;;;;;;;13.50;5.75;;;4.40;96.90;;;;;;10132776;28;20074;-74
2021/12/19 09:35:23;;;;;;;8.27;4.40;;;4.40;97.00;;;;;;10130624;28;20286;-72
2021/12/19 09:40:20;;;;;;;8.40;3.90;;;4.50;96.90;;;;;;10126821;28;20029;-74
2021/12/19 09:45:10;;;;;;;7.88;4.30;;;4.50;97.00;;;;;;10130870;28;20024;-74
2021/12/19 09:50:05;;;;;;;9.90;4.47;;;4.50;96.90;;;;;;10126256;28;20402;-74
2021/12/19 09:54:56;;;;;;;11.50;4.68;;;4.60;96.80;;;;;;10130131;28;20052;-70
2021/12/19 09:59:46;;;;;;;9.68;3.35;;;4.50;96.80;;;;;;10128090;28;20033;-75
2021/12/19 10:04:38;;;;;;;6.20;3.72;;;4.30;96.80;;;;;;10128450;28;20042;-73
2021/12/19 10:09:29;;;;;;;8.30;3.50;;;4.20;97.00;;;;;;10129617;28;20025;-75
2021/12/19 10:14:38;;;;;;;8.15;3.22;;;4.40;96.90;;;;;;10141698;28;20024;-73
2021/12/19 10:19:49;;;;;;;7.63;3.53;;;4.10;96.70;;;;;;10131677;28;20035;-70
2021/12/19 10:24:40;;;;;;;5.30;3.03;;;4.10;96.80;;;;;;10129813;28;20074;-71
2021/12/19 10:29:46;;;;;;;6.72;3.53;;;4.00;96.80;;;;;;10132738;28;20024;-72
2021/12/19 10:34:37;;;;;;;8.52;3.83;;;4.10;97.00;;;;;;10133103;28;20073;-72
2021/12/19 10:39:39;;;;;;;7.60;3.55;;;4.30;96.80;;;;;;10133752;28;20112;-73
2021/12/19 10:49:48;;;;;;;7.20;3.40;;;4.40;96.50;;;;;;10112255;28;20485;-72
2021/12/19 10:55:00;;;;;;;6.60;3.30;;;4.10;96.60;;;;;;10137688;28;20126;-74
2021/12/19 10:59:51;;;;;;;7.32;3.50;;;4.20;96.60;;;;;;10131559;28;20029;-74
2021/12/19 11:04:41;;;;;;;8.55;3.25;;;4.30;96.50;;;;;;10131667;28;20031;-74
2021/12/19 11:09:36;;;;;;;5.85;3.40;;;4.40;96.50;;;;;;10125180;28;20040;-74
2021/12/19 11:14:28;;;;;;;9.30;3.50;;;4.40;96.30;;;;;;10127151;28;20225;-73
2021/12/19 11:19:19;;;;;;;7.40;3.15;;;4.30;96.40;;;;;;10126468;28;20506;-73
2021/12/19 11:24:12;;;;;;;6.78;2.88;;;4.30;96.50;;;;;;10123395;28;20048;-74
2021/12/19 11:29:03;;;;;;;5.53;2.90;;;4.30;96.50;;;;;;10144510;28;20039;-74
2021/12/19 11:34:03;;;;;;;7.95;3.67;;;4.40;96.50;;;;;;10151575;28;20518;-74
2021/12/19 11:38:54;;;;;;;9.77;3.85;;;4.40;96.30;;;;;;10130080;28;20032;-73
2021/12/19 11:43:47;;;;;;;7.57;3.15;;;4.40;96.70;;;;;;10126758;28;20078;-74
2021/12/19 11:48:38;;;;;;;5.43;2.75;;;4.20;96.50;;;;;;10126921;28;20037;-74
2021/12/19 11:53:39;;;;;;;7.70;3.92;;;4.30;96.70;;;;;;10130771;28;20036;-72
2021/12/19 11:58:36;;;;;;;9.70;3.83;;;4.50;96.40;;;;;;10133403;28;20101;-69
2021/12/19 12:03:28;;;;;;;8.38;3.30;;;4.50;96.30;;;;;;10132899;28;20556;-73
2021/12/19 12:08:20;;;;;;;5.93;3.10;;;4.50;96.30;;;;;;10135304;28;20028;-73
2021/12/19 12:13:22;;;;;;;7.35;3.58;;;4.50;96.40;;;;;;10133859;28;20024;-74
2021/12/19 12:18:36;;;;;;;5.57;3.00;;;4.50;96.40;;;;;;10123765;28;20040;-74
2021/12/19 12:23:27;;;;;;;8.52;3.80;;;4.40;96.30;;;;;;10129670;28;20055;-73
2021/12/19 12:28:19;;;;;;;9.02;4.75;;;4.30;96.50;;;;;;10133068;28;20036;-73
2021/12/19 12:33:14;;;;;;;7.07;3.47;;;4.20;96.70;;;;;;10132216;28;20035;-72
2021/12/19 12:38:06;;;;;;;7.03;3.35;;;4.40;96.50;;;;;;10134057;28;20514;-73
2021/12/19 12:42:59;;;;;;;8.35;3.63;;;4.40;96.40;;;;;;10133303;28;20028;-74
2021/12/19 12:47:50;;;;;;;6.05;3.05;;;4.40;96.30;;;;;;10130614;28;20456;-71
2021/12/19 12:52:40;;;;;;;10.40;4.32;;;4.30;96.40;;;;;;10133394;28;20021;-73
2021/12/19 12:57:31;;;;;;;7.38;3.35;;;4.30;96.50;;;;;;10131236;28;20036;-75
2021/12/19 13:02:31;;;;;;;10.48;4.30;;;4.40;96.30;;;;;;10133257;28;20024;-74
2021/12/19 13:07:26;;;;;;;9.35;4.47;;;4.30;96.30;;;;;;10132046;28;20048;-73
2021/12/19 13:12:20;;;;;;;8.10;4.00;;;4.30;96.40;;;;;;10131304;28;20386;-75
2021/12/19 13:17:24;;;;;;;8.30;4.60;;;4.20;96.40;;;;;;10134103;28;20052;-75
2021/12/19 13:22:20;;;;;;;8.63;4.47;;;4.10;96.50;;;;;;10128001;28;20408;-73
2021/12/19 13:27:18;;;;;;;12.27;5.13;;;4.00;96.60;;;;;;10131047;28;20125;-75
2021/12/19 13:32:20;;;;;;;10.77;4.38;;;4.20;96.60;;;;;;10130467;28;20032;-71
2021/12/19 13:37:11;;;;;;;9.75;5.22;;;4.10;96.50;;;;;;10130458;28;20032;-70
2021/12/19 13:42:10;;;;;;;13.18;4.75;;;4.00;96.30;;;;;;10125449;28;20084;-77
2021/12/19 13:47:23;;;;;;;12.10;5.05;;;3.90;96.50;;;;;;10131122;28;20037;-75
2021/12/19 13:52:14;;;;;;;12.18;5.03;;;3.90;96.50;;;;;;10130677;28;20536;-75
2021/12/19 13:57:20;;;;;;;9.73;4.32;;;3.90;96.50;;;;;;10130158;28;20035;-74
2021/12/19 14:02:12;;;;;;;10.80;4.78;;;3.90;96.40;;;;;;10127324;28;20111;-74
2021/12/19 14:07:11;;;;;;;8.52;4.53;;;4.00;96.50;;;;;;10129825;28;20103;-74
2021/12/19 14:12:25;;;;;;;9.07;3.90;;;4.10;96.60;;;;;;10124661;28;20044;-74
2021/12/19 14:17:16;;;;;;;11.43;3.92;;;4.20;96.50;;;;;;10132367;28;20096;-75
2021/12/19 14:22:07;;;;;;;11.45;4.95;;;4.20;96.60;;;;;;10133284;28;20045;-73
2021/12/19 14:27:25;;;;;;;11.75;5.80;;;4.10;96.40;;;;;;10126694;28;20036;-72
2021/12/19 14:32:32;;;;;;;10.85;4.70;;;4.10;96.50;;;;;;10128433;28;20530;-73
2021/12/19 14:37:36;;;;;;;14.23;6.25;;;4.20;96.60;;;;;;10132541;28;20273;-75
2021/12/19 14:42:31;;;;;;;13.43;4.90;;;4.20;96.60;;;;;;10141833;28;20564;-74
2021/12/19 14:47:46;;;;;;;8.65;4.45;;;4.20;96.60;;;;;;10138363;28;20036;-74
2021/12/19 14:52:37;;;;;;;14.43;5.37;;;4.20;96.70;;;;;;10127708;28;20087;-73
2021/12/19 14:57:28;;;;;;;10.80;4.97;;;4.20;96.70;;;;;;10129024;28;20483;-72
2021/12/19 15:02:18;;;;;;;11.85;5.03;;;4.10;96.70;;;;;;10128751;28;20054;-73
2021/12/19 15:07:10;;;;;;;9.45;4.32;;;4.10;96.80;;;;;;10129806;28;20450;-73
2021/12/19 15:12:02;;;;;;;9.80;5.20;;;4.20;96.70;;;;;;10129081;28;20032;-72
2021/12/19 15:16:52;;;;;;;8.27;5.30;;;4.30;96.70;;;;;;10126279;28;20531;-74
2021/12/19 15:21:43;;;;;;;10.25;5.53;;;4.20;96.70;;;;;;10125800;28;20040;-73
2021/12/19 15:26:34;;;;;;;12.75;4.63;;;4.20;96.70;;;;;;10126434;28;20398;-75
2021/12/19 15:31:25;;;;;;;11.30;5.25;;;4.20;96.70;;;;;;10130238;28;20041;-74
2021/12/19 15:36:17;;;;;;;11.90;4.95;;;4.20;96.60;;;;;;10127361;28;20036;-73
2021/12/19 15:41:08;;;;;;;13.73;6.05;;;4.30;96.60;;;;;;10140664;28;20025;-74
2021/12/19 15:45:59;;;;;;;9.77;5.05;;;4.20;96.60;;;;;;10128412;28;20530;-73
2021/12/19 15:50:51;;;;;;;9.63;5.03;;;4.20;96.70;;;;;;10122927;28;20054;-74
2021/12/19 15:55:43;;;;;;;11.38;4.18;;;4.20;96.70;;;;;;10127934;28;20033;-73
2021/12/19 16:00:35;;;;;;;13.07;5.75;;;4.00;96.80;;;;;;10129870;28;20481;-73
2021/12/19 16:05:25;;;;;;;16.55;5.95;;;4.00;96.80;;;;;;10125793;28;20098;-72
2021/12/19 16:10:17;;;;;;;13.07;4.03;;;3.90;96.80;;;;;;10119843;28;20048;-75
2021/12/19 16:15:08;;;;;;;10.38;3.55;;;3.90;96.90;;;;;;10129794;28;20127;-74
2021/12/19 16:19:59;;;;;;;7.47;3.22;;;4.00;96.90;;;;;;10125552;28;20072;-74
2021/12/19 16:24:50;;;;;;;11.05;3.60;;;3.90;96.70;;;;;;10121677;28;20114;-76
2021/12/19 16:29:40;;;;;;;8.02;3.47;;;3.90;96.80;;;;;;10126132;28;20060;-72
2021/12/19 16:34:31;;;;;;;13.07;3.83;;;3.80;96.90;;;;;;10098110;28;20340;-74
2021/12/19 16:39:23;;;;;;;7.88;3.53;;;4.00;96.80;;;;;;10119136;28;20043;-74
2021/12/19 16:44:17;;;;;;;13.23;3.97;;;4.10;96.60;;;;;;10128985;28;20039;-71
2021/12/19 16:49:08;;;;;;;7.03;3.42;;;4.10;96.60;;;;;;10130509;28;20149;-75
2021/12/19 16:53:59;;;;;;;6.22;2.78;;;4.00;96.80;;;;;;10129865;28;20131;-70
2021/12/19 16:58:49;;;;;;;11.98;3.65;;;3.80;97.00;;;;;;10130261;28;20048;-73
2021/12/19 17:03:40;;;;;;;7.80;3.80;;;3.90;97.00;;;;;;10131524;28;20498;-76
2021/12/19 17:08:31;;;;;;;11.57;4.45;;;3.90;97.00;;;;;;10131073;28;20060;-74
2021/12/19 17:13:37;;;;;;;6.43;3.90;;;4.00;96.90;;;;;;10128071;28;20069;-75
2021/12/19 17:18:28;;;;;;;6.63;3.53;;;4.00;96.80;;;;;;10127150;28;20040;-73
2021/12/19 17:23:19;;;;;;;9.38;3.65;;;4.00;96.90;;;;;;10131598;28;20077;-70
2021/12/19 17:28:10;;;;;;;10.73;3.67;;;3.90;96.80;;;;;;10128780;28;20037;-73
2021/12/19 17:33:04;;;;;;;9.52;4.25;;;3.70;96.90;;;;;;10132229;28;20028;-74
2021/12/19 17:37:59;;;;;;;8.77;3.17;;;3.70;96.80;;;;;;10132248;28;20041;-74
2021/12/19 17:42:50;;;;;;;9.73;4.38;;;3.80;97.00;;;;;;10127548;28;20030;-73
2021/12/19 17:47:41;;;;;;;13.50;5.57;;;3.70;96.70;;;;;;10126818;28;20035;-74
2021/12/19 17:52:32;;;;;;;9.00;3.42;;;3.50;96.90;;;;;;10132695;28;20163;-74
2021/12/19 17:57:22;;;;;;;6.57;2.45;;;3.50;96.90;;;;;;10132171;28;20054;-74
2021/12/19 18:02:13;;;;;;;9.60;3.70;;;3.70;97.00;;;;;;10130018;28;20032;-76
2021/12/19 18:07:05;;;;;;;8.95;4.07;;;3.80;96.80;;;;;;10129007;28;20602;-75
2021/12/19 18:11:56;;;;;;;7.13;3.28;;;3.60;96.80;;;;;;10130077;28;20352;-75
2021/12/19 18:16:47;;;;;;;4.18;2.53;;;3.60;97.00;;;;;;10128758;28;20029;-74
2021/12/19 18:21:38;;;;;;;9.05;3.13;;;3.70;97.00;;;;;;10122047;28;20036;-74
2021/12/19 18:26:30;;;;;;;6.85;3.30;;;3.70;96.90;;;;;;10133948;28;20452;-72
2021/12/19 18:31:23;;;;;;;6.90;3.08;;;3.70;96.80;;;;;;10133764;28;20132;-68
2021/12/19 18:36:18;;;;;;;5.80;2.67;;;3.70;96.90;;;;;;10129721;28;20043;-73
2021/12/19 18:41:30;;;;;;;7.13;3.07;;;3.70;97.00;;;;;;10134879;28;20040;-71
2021/12/19 18:56:29;;;;;;;5.50;2.95;;;3.80;96.90;;;;;;10126947;28;20063;-72
2021/12/19 19:01:33;;;;;;;7.22;2.88;;;3.80;96.90;;;;;;10121852;28;20502;-73
2021/12/19 19:06:29;;;;;;;8.15;2.85;;;3.80;97.10;;;;;;10119461;28;20025;-72
2021/12/19 19:11:22;;;;;;;5.90;3.30;;;3.80;97.00;;;;;;10116467;28;20035;-65
2021/12/19 19:16:13;;;;;;;6.03;2.95;;;3.80;97.00;;;;;;10116009;28;20102;-68
2021/12/19 19:21:03;;;;;;;6.15;2.75;;;3.80;97.00;;;;;;10119018;28;20437;-68
2021/12/19 19:25:57;;;;;;;7.75;3.25;;;3.80;97.00;;;;;;10121333;28;20040;-71
2021/12/19 19:30:48;;;;;;;5.70;3.00;;;3.90;97.00;;;;;;10112200;28;20025;-73
2021/12/19 19:35:39;;;;;;;7.38;2.85;;;3.90;96.80;;;;;;10110059;28;20536;-72
2021/12/19 19:41:00;;;;;;;6.38;3.00;;;3.90;96.90;;;;;;10118684;28;20029;-71
2021/12/19 19:51:00;;;;;;;17.10;6.88;;;4.00;96.80;;;;;;10117861;28;20036;-69
2021/12/19 19:55:51;;;;;;;14.88;7.72;;;3.90;96.90;;;;;;10104648;28;20048;-69
2021/12/19 20:00:42;;;;;;;16.63;8.50;;;4.10;96.90;;;;;;10102752;28;20466;-70
2021/12/19 20:05:33;;;;;;;14.20;5.47;;;4.10;96.80;;;;;;10105820;28;20017;-73
2021/12/19 20:10:24;;;;;;;9.35;3.85;;;4.00;96.90;;;;;;10104920;28;20063;-72
2021/12/19 20:15:15;;;;;;;7.55;3.13;;;3.90;96.80;;;;;;10107481;28;20064;-68
2021/12/19 20:20:06;;;;;;;7.57;3.78;;;4.00;96.90;;;;;;10116956;28;20112;-69
2021/12/19 20:24:57;;;;;;;9.65;3.85;;;4.00;96.90;;;;;;10125046;28;20060;-68
2021/12/19 20:29:48;;;;;;;9.57;4.80;;;4.10;96.90;;;;;;10126749;28;20032;-70
2021/12/19 20:34:39;;;;;;;12.88;5.40;;;4.20;96.70;;;;;;10119955;28;20016;-69
2021/12/19 20:39:30;;;;;;;10.00;4.30;;;4.20;96.70;;;;;;10113303;28;20517;-69
2021/12/19 20:44:21;;;;;;;10.50;5.15;;;4.10;96.80;;;;;;10120790;28;20044;-70
2021/12/19 20:49:12;;;;;;;10.60;4.22;;;4.10;96.80;;;;;;10115854;28;20032;-70
2021/12/19 20:54:05;;;;;;;10.48;4.72;;;4.20;96.50;;;;;;10115317;28;20047;-69
2021/12/19 20:58:56;;;;;;;8.10;4.53;;;4.20;96.80;;;;;;10122947;28;20040;-69
2021/12/19 21:03:50;;;;;;;9.38;5.03;;;4.20;96.60;;;;;;10119632;28;20047;-71
2021/12/19 21:08:42;;;;;;;10.93;5.32;;;4.20;96.70;;;;;;10130901;28;20027;-71
2021/12/19 21:13:50;;;;;;;11.65;4.93;;;4.20;96.70;;;;;;10117010;28;20033;-70
2021/12/19 21:23:50;;;;;;;12.30;4.47;;;4.20;96.70;;;;;;10121646;28;20043;-69
2021/12/19 21:28:41;;;;;;;11.18;4.80;;;4.30;96.60;;;;;;10137490;28;20047;-71
2021/12/19 21:33:32;;;;;;;11.18;4.90;;;4.20;96.50;;;;;;10127638;28;20044;-70
2021/12/19 21:43:34;;;;;;;9.07;4.65;;;3.90;96.80;;;;;;10122029;28;20119;-71
2021/12/19 21:48:24;;;;;;;11.82;4.28;;;4.10;97.00;;;;;;10118369;28;20051;-69
2021/12/19 21:53:15;;;;;;;12.80;5.30;;;4.00;96.70;;;;;;10125242;28;20024;-72
2021/12/19 21:58:06;;;;;;;11.85;4.72;;;3.90;96.80;;;;;;10114421;28;20032;-70
2021/12/19 22:02:57;;;;;;;11.15;4.90;;;4.00;96.80;;;;;;10120296;28;20116;-71
2021/12/19 22:07:52;;;;;;;15.00;4.75;;;3.90;96.80;;;;;;10129086;28;20367;-71
2021/12/19 22:17:33;;;;;;;12.93;5.38;;;3.90;96.80;;;;;;10114460;28;20048;-71
2021/12/19 22:22:24;;;;;;;14.75;4.95;;;3.70;96.80;;;;;;10110170;28;20072;-72
2021/12/19 22:27:16;;;;;;;15.98;5.32;;;3.50;97.10;;;;;;10118589;28;20108;-70
2021/12/19 22:32:07;;;;;;;11.88;5.65;;;3.60;97.00;;;;;;10130425;28;20023;-71
2021/12/19 22:36:58;;;;;;;18.95;7.47;;;3.60;97.10;;;;;;10119499;28;20041;-71
2021/12/19 22:41:49;;;;;;;15.02;6.65;;;3.60;96.90;;;;;;10117244;28;20158;-71
2021/12/19 22:46:40;;;;;;;14.30;5.55;;;3.50;97.00;;;;;;10126318;28;20033;-70
2021/12/19 22:51:31;;;;;;;14.50;4.90;;;3.60;97.10;;;;;;10111795;28;20496;-70
2021/12/19 22:56:22;;;;;;;14.75;4.88;;;3.60;97.10;;;;;;10109021;28;20143;-69
2021/12/19 23:01:12;;;;;;;15.45;6.07;;;3.60;97.00;;;;;;10110853;28;20123;-69
2021/12/19 23:06:04;;;;;;;15.73;6.07;;;3.80;97.00;;;;;;10123245;28;20062;-70
2021/12/19 23:11:03;;;;;;;12.25;5.03;;;3.80;96.90;;;;;;10106751;28;20036;-70
2021/12/19 23:15:58;;;;;;;12.55;5.85;;;3.80;97.00;;;;;;10107990;28;20486;-70
2021/12/19 23:20:49;;;;;;;8.27;3.60;;;3.90;96.90;;;;;;10118290;28;20024;-73
2021/12/19 23:25:40;;;;;;;13.93;5.47;;;4.00;96.80;;;;;;10111801;28;20160;-71
2021/12/19 23:30:32;;;;;;;10.15;5.85;;;4.10;96.90;;;;;;10115869;28;20249;-70
2021/12/19 23:35:26;;;;;;;17.58;7.03;;;4.10;96.70;;;;;;10114617;28;20431;-70
2021/12/19 23:40:31;;;;;;;12.70;6.63;;;4.10;96.90;;;;;;10109519;28;20021;-72
2021/12/19 23:45:22;;;;;;;12.40;5.55;;;4.10;96.90;;;;;;10111782;28;20056;-69
2021/12/19 23:50:12;;;;;;;18.38;6.70;;;4.00;97.00;;;;;;10122840;28;20065;-71
2021/12/19 23:55:06;;;;;;;15.52;6.13;;;4.00;97.00;;;;;;10121020;28;20043;-70
2021/12/19 23:59:57;;;;;;;11.10;5.35;;;4.10;97.00;;;;;;10131018;28;20024;-70
